sensor_id;sensor_type;location;lat;lon;timestamp;pressure;altitude;pressure_sealevel;temperature;humidity
16255;BME280;8235;52.198;9.904;2023-08-01T00:00:11;99141.31;;;17.34;100.00
16255;BME280;8235;52.198;9.904;2023-08-01T00:02:38;99153.09;;;17.33;100.00
16255;BME280;8235;52.198;9.904;2023-08-01T00:05:04;99160.31;;;17.32;100.00
16255;BME280;8235;52.198;9.904;2023-08-01T00:07:31;99173.09;;;17.30;100.00
16255;BME280;8235;52.198;9.904;2023-08-01T00:09:59;99158.97;;;17.28;100.00
16255;BME280;8235;52.198;9.904;2023-08-01T00:12:26;99162.50;;;17.29;100.00
16255;BME280;8235;52.198;9.904;2023-08-01T00:14:53;99157.13;;;17.29;100.00
16255;BME280;8235;52.198;9.904;2023-08-01T00:17:19;99157.97;;;17.29;100.00
16255;BME280;8235;52.198;9.904;2023-08-01T00:19:46;99147.38;;;17.28;100.00
16255;BME280;8235;52.198;9.904;2023-08-01T00:22:12;99136.78;;;17.26;100.00
16255;BME280;8235;52.198;9.904;2023-08-01T00:24:39;99132.75;;;17.30;100.00
16255;BME280;8235;52.198;9.904;2023-08-01T00:27:07;99124.84;;;17.29;100.00
16255;BME280;8235;52.198;9.904;2023-08-01T00:29:35;99129.22;;;17.30;100.00
16255;BME280;8235;52.198;9.904;2023-08-01T00:32:02;99114.91;;;17.29;100.00
16255;BME280;8235;52.198;9.904;2023-08-01T00:34:29;99118.97;;;17.25;100.00
16255;BME280;8235;52.198;9.904;2023-08-01T00:36:56;99114.25;;;17.27;100.00
16255;BME280;8235;52.198;9.904;2023-08-01T00:39:22;99108.03;;;17.27;100.00
16255;BME280;8235;52.198;9.904;2023-08-01T00:41:49;99102.81;;;17.25;100.00
16255;BME280;8235;52.198;9.904;2023-08-01T00:44:17;99092.06;;;17.25;100.00
16255;BME280;8235;52.198;9.904;2023-08-01T00:46:43;99090.22;;;17.26;100.00
16255;BME280;8235;52.198;9.904;2023-08-01T00:49:10;99084.00;;;17.25;100.00
16255;BME280;8235;52.198;9.904;2023-08-01T00:51:37;99084.00;;;17.25;100.00
16255;BME280;8235;52.198;9.904;2023-08-01T00:54:03;99087.03;;;17.22;100.00
16255;BME280;8235;52.198;9.904;2023-08-01T00:56:30;99087.03;;;17.22;100.00
16255;BME280;8235;52.198;9.904;2023-08-01T00:58:56;99082.66;;;17.21;100.00
16255;BME280;8235;52.198;9.904;2023-08-01T01:01:24;99074.59;;;17.21;100.00
16255;BME280;8235;52.198;9.904;2023-08-01T01:03:50;99073.41;;;17.24;100.00
16255;BME280;8235;52.198;9.904;2023-08-01T01:06:20;99069.88;;;17.23;100.00
16255;BME280;8235;52.198;9.904;2023-08-01T01:08:50;99063.66;;;17.23;100.00
16255;BME280;8235;52.198;9.904;2023-08-01T01:11:17;99055.59;;;17.23;100.00
16255;BME280;8235;52.198;9.904;2023-08-01T01:13:43;99050.38;;;17.21;100.00
16255;BME280;8235;52.198;9.904;2023-08-01T01:16:10;99047.50;;;17.23;100.00
16255;BME280;8235;52.198;9.904;2023-08-01T01:18:37;99042.31;;;17.21;100.00
16255;BME280;8235;52.198;9.904;2023-08-01T01:21:32;99034.41;;;17.20;100.00
16255;BME280;8235;52.198;9.904;2023-08-01T01:24:36;99028.03;;;17.21;100.00
16255;BME280;8235;52.198;9.904;2023-08-01T01:27:04;99030.09;;;17.19;100.00
16255;BME280;8235;52.198;9.904;2023-08-01T01:29:32;99030.91;;;17.19;100.00
16255;BME280;8235;52.198;9.904;2023-08-01T01:32:00;99037.94;;;17.20;100.00
16255;BME280;8235;52.198;9.904;2023-08-01T01:34:27;99038.16;;;17.19;100.00
16255;BME280;8235;52.198;9.904;2023-08-01T01:36:55;99037.31;;;17.18;100.00
16255;BME280;8235;52.198;9.904;2023-08-01T01:39:21;99026.56;;;17.18;100.00
16255;BME280;8235;52.198;9.904;2023-08-01T01:41:48;99033.59;;;17.19;100.00
16255;BME280;8235;52.198;9.904;2023-08-01T01:44:14;99022.00;;;17.19;100.00
16255;BME280;8235;52.198;9.904;2023-08-01T01:46:41;99022.84;;;17.19;100.00
16255;BME280;8235;52.198;9.904;2023-08-01T01:49:07;99022.84;;;17.19;100.00
16255;BME280;8235;52.198;9.904;2023-08-01T01:51:34;99018.84;;;17.15;100.00
16255;BME280;8235;52.198;9.904;2023-08-01T01:54:02;99006.09;;;17.09;100.00
16255;BME280;8235;52.198;9.904;2023-08-01T01:56:28;99011.66;;;17.08;100.00
16255;BME280;8235;52.198;9.904;2023-08-01T01:58:55;99004.59;;;17.07;100.00
16255;BME280;8235;52.198;9.904;2023-08-01T02:01:21;99000.03;;;17.07;100.00
16255;BME280;8235;52.198;9.904;2023-08-01T02:03:48;99007.28;;;17.07;100.00
16255;BME280;8235;52.198;9.904;2023-08-01T02:06:14;98990.31;;;17.06;100.00
16255;BME280;8235;52.198;9.904;2023-08-01T02:08:41;98994.00;;;17.05;100.00
16255;BME280;8235;52.198;9.904;2023-08-01T02:11:09;98976.19;;;17.04;100.00
16255;BME280;8235;52.198;9.904;2023-08-01T02:13:35;98975.19;;;17.05;100.00
16255;BME280;8235;52.198;9.904;2023-08-01T02:16:02;98971.47;;;17.06;100.00
16255;BME280;8235;52.198;9.904;2023-08-01T02:18:28;98961.56;;;17.07;100.00
16255;BME280;8235;52.198;9.904;2023-08-01T02:20:54;98951.63;;;17.07;100.00
16255;BME280;8235;52.198;9.904;2023-08-01T02:23:21;98956.84;;;17.09;100.00
16255;BME280;8235;52.198;9.904;2023-08-01T02:25:47;98946.06;;;17.09;100.00
16255;BME280;8235;52.198;9.904;2023-08-01T02:28:15;98948.59;;;17.10;100.00
16255;BME280;8235;52.198;9.904;2023-08-01T02:30:42;98946.72;;;17.11;100.00
16255;BME280;8235;52.198;9.904;2023-08-01T02:33:08;98951.09;;;17.12;100.00
16255;BME280;8235;52.198;9.904;2023-08-01T02:35:35;98947.41;;;17.13;100.00
16255;BME280;8235;52.198;9.904;2023-08-01T02:38:02;98947.22;;;17.14;100.00
16255;BME280;8235;52.198;9.904;2023-08-01T02:40:29;98948.22;;;17.13;100.00
16255;BME280;8235;52.198;9.904;2023-08-01T02:42:55;98928.56;;;17.13;100.00
16255;BME280;8235;52.198;9.904;2023-08-01T02:45:23;98927.56;;;17.14;100.00
16255;BME280;8235;52.198;9.904;2023-08-01T02:47:50;98919.31;;;17.15;100.00
16255;BME280;8235;52.198;9.904;2023-08-01T02:50:16;98913.91;;;17.15;100.00
16255;BME280;8235;52.198;9.904;2023-08-01T02:52:43;98919.13;;;17.17;100.00
16255;BME280;8235;52.198;9.904;2023-08-01T02:55:09;98918.09;;;17.18;100.00
16255;BME280;8235;52.198;9.904;2023-08-01T02:57:36;98918.94;;;17.18;100.00
16255;BME280;8235;52.198;9.904;2023-08-01T03:00:03;98919.78;;;17.19;100.00
16255;BME280;8235;52.198;9.904;2023-08-01T03:02:32;98921.44;;;17.20;100.00
16255;BME280;8235;52.198;9.904;2023-08-01T03:04:59;98909.84;;;17.19;100.00
16255;BME280;8235;52.198;9.904;2023-08-01T03:07:25;98913.56;;;17.18;100.00
16255;BME280;8235;52.198;9.904;2023-08-01T03:09:51;98915.41;;;17.18;100.00
16255;BME280;8235;52.198;9.904;2023-08-01T03:12:18;98915.41;;;17.18;100.00
16255;BME280;8235;52.198;9.904;2023-08-01T03:14:44;98914.75;;;17.16;100.00
16255;BME280;8235;52.198;9.904;2023-08-01T03:17:13;98909.38;;;17.16;100.00
16255;BME280;8235;52.198;9.904;2023-08-01T03:19:40;98906.88;;;17.14;100.00
16255;BME280;8235;52.198;9.904;2023-08-01T03:22:07;98903.50;;;17.12;100.00
16255;BME280;8235;52.198;9.904;2023-08-01T03:24:33;98897.47;;;17.10;100.00
16255;BME280;8235;52.198;9.904;2023-08-01T03:27:00;98886.06;;;17.08;100.00
16255;BME280;8235;52.198;9.904;2023-08-01T03:29:26;98883.38;;;17.08;100.00
16255;BME280;8235;52.198;9.904;2023-08-01T03:31:53;98891.78;;;17.05;100.00
16255;BME280;8235;52.198;9.904;2023-08-01T03:34:19;98889.09;;;17.05;100.00
16255;BME280;8235;52.198;9.904;2023-08-01T03:36:47;98888.28;;;17.05;100.00
16255;BME280;8235;52.198;9.904;2023-08-01T03:39:14;98894.66;;;17.04;100.00
16255;BME280;8235;52.198;9.904;2023-08-01T03:41:40;98901.06;;;17.02;100.00
16255;BME280;8235;52.198;9.904;2023-08-01T03:44:07;98896.53;;;17.03;100.00
16255;BME280;8235;52.198;9.904;2023-08-01T03:46:33;98889.28;;;17.04;100.00
16255;BME280;8235;52.198;9.904;2023-08-01T03:49:00;98870.63;;;17.02;100.00
16255;BME280;8235;52.198;9.904;2023-08-01T03:51:26;98878.09;;;17.00;100.00
16255;BME280;8235;52.198;9.904;2023-08-01T03:53:54;98881.78;;;16.99;100.00
16255;BME280;8235;52.198;9.904;2023-08-01T03:56:20;98878.44;;;16.97;100.00
16255;BME280;8235;52.198;9.904;2023-08-01T03:58:47;98872.22;;;16.96;100.00
16255;BME280;8235;52.198;9.904;2023-08-01T04:01:13;98871.38;;;16.96;100.00
16255;BME280;8235;52.198;9.904;2023-08-01T04:03:40;98868.88;;;16.94;100.00
16255;BME280;8235;52.198;9.904;2023-08-01T04:06:07;98877.97;;;16.93;100.00
16255;BME280;8235;52.198;9.904;2023-08-01T04:08:33;98868.22;;;16.92;100.00
16255;BME280;8235;52.198;9.904;2023-08-01T04:11:01;98871.91;;;16.91;100.00
16255;BME280;8235;52.198;9.904;2023-08-01T04:13:27;98880.16;;;16.90;100.00
16255;BME280;8235;52.198;9.904;2023-08-01T04:15:54;98873.78;;;16.91;100.00
16255;BME280;8235;52.198;9.904;2023-08-01T04:18:20;98870.25;;;16.90;100.00
16255;BME280;8235;52.198;9.904;2023-08-01T04:20:47;98875.44;;;16.92;100.00
16255;BME280;8235;52.198;9.904;2023-08-01T04:23:13;98870.06;;;16.92;100.00
16255;BME280;8235;52.198;9.904;2023-08-01T04:25:40;98863.84;;;16.91;100.00
16255;BME280;8235;52.198;9.904;2023-08-01T04:28:08;98866.38;;;16.93;100.00
16255;BME280;8235;52.198;9.904;2023-08-01T04:30:35;98864.69;;;16.92;100.00
16255;BME280;8235;52.198;9.904;2023-08-01T04:33:03;98866.72;;;16.90;100.00
16255;BME280;8235;52.198;9.904;2023-08-01T04:35:30;98862.53;;;16.87;100.00
16255;BME280;8235;52.198;9.904;2023-08-01T04:37:56;98862.09;;;16.84;100.00
16255;BME280;8235;52.198;9.904;2023-08-01T04:40:23;98857.06;;;16.81;100.00
16255;BME280;8235;52.198;9.904;2023-08-01T04:42:49;98860.09;;;16.78;100.00
16255;BME280;8235;52.198;9.904;2023-08-01T04:45:18;98861.28;;;16.75;100.00
16255;BME280;8235;52.198;9.904;2023-08-01T04:47:44;98865.00;;;16.74;100.00
16255;BME280;8235;52.198;9.904;2023-08-01T04:50:10;98856.09;;;16.74;100.00
16255;BME280;8235;52.198;9.904;2023-08-01T04:52:37;98855.44;;;16.72;100.00
16255;BME280;8235;52.198;9.904;2023-08-01T04:55:04;98855.44;;;16.72;100.00
16255;BME280;8235;52.198;9.904;2023-08-01T04:57:31;98869.91;;;16.71;100.00
16255;BME280;8235;52.198;9.904;2023-08-01T04:59:57;98865.72;;;16.68;100.00
16255;BME280;8235;52.198;9.904;2023-08-01T05:02:26;98865.53;;;16.70;100.00
16255;BME280;8235;52.198;9.904;2023-08-01T05:04:52;98875.44;;;16.69;100.00
16255;BME280;8235;52.198;9.904;2023-08-01T05:07:19;98881.66;;;16.70;100.00
16255;BME280;8235;52.198;9.904;2023-08-01T05:09:45;98874.44;;;16.70;100.00
16255;BME280;8235;52.198;9.904;2023-08-01T05:12:12;98881.31;;;16.73;100.00
16255;BME280;8235;52.198;9.904;2023-08-01T05:14:38;98880.47;;;16.72;100.00
16255;BME280;8235;52.198;9.904;2023-08-01T05:17:05;98876.47;;;16.68;100.00
16255;BME280;8235;52.198;9.904;2023-08-01T05:19:33;98871.25;;;16.66;100.00
16255;BME280;8235;52.198;9.904;2023-08-01T05:21:59;98883.06;;;16.65;100.00
16255;BME280;8235;52.198;9.904;2023-08-01T05:24:25;98877.69;;;16.65;100.00
16255;BME280;8235;52.198;9.904;2023-08-01T05:26:52;98877.03;;;16.63;100.00
16255;BME280;8235;52.198;9.904;2023-08-01T05:29:18;98886.06;;;16.62;100.00
16255;BME280;8235;52.198;9.904;2023-08-01T05:31:45;98887.25;;;16.60;100.00
16255;BME280;8235;52.198;9.904;2023-08-01T05:34:11;98902.53;;;16.59;100.00
16255;BME280;8235;52.198;9.904;2023-08-01T05:36:39;98899.00;;;16.59;100.00
16255;BME280;8235;52.198;9.904;2023-08-01T05:39:06;98905.41;;;16.58;100.00
16255;BME280;8235;52.198;9.904;2023-08-01T05:41:32;98905.41;;;16.58;100.00
16255;BME280;8235;52.198;9.904;2023-08-01T05:43:59;98903.56;;;16.58;100.00
16255;BME280;8235;52.198;9.904;2023-08-01T05:46:25;98900.88;;;16.58;100.00
16255;BME280;8235;52.198;9.904;2023-08-01T05:48:52;98896.50;;;16.57;100.00
16255;BME280;8235;52.198;9.904;2023-08-01T05:51:18;98894.66;;;16.58;100.00
16255;BME280;8235;52.198;9.904;2023-08-01T05:53:46;98900.88;;;16.58;100.00
16255;BME280;8235;52.198;9.904;2023-08-01T05:56:13;98904.38;;;16.59;100.00
16255;BME280;8235;52.198;9.904;2023-08-01T05:58:40;98914.13;;;16.60;100.00
16255;BME280;8235;52.198;9.904;2023-08-01T06:01:06;98907.06;;;16.59;100.00
16255;BME280;8235;52.198;9.904;2023-08-01T06:03:34;98911.44;;;16.60;100.00
16255;BME280;8235;52.198;9.904;2023-08-01T06:06:00;98903.38;;;16.60;100.00
16255;BME280;8235;52.198;9.904;2023-08-01T06:08:27;98906.25;;;16.58;100.00
16255;BME280;8235;52.198;9.904;2023-08-01T06:10:55;98902.53;;;16.59;100.00
16255;BME280;8235;52.198;9.904;2023-08-01T06:13:21;98902.53;;;16.59;100.00
16255;BME280;8235;52.198;9.904;2023-08-01T06:15:48;98901.53;;;16.60;100.00
16255;BME280;8235;52.198;9.904;2023-08-01T06:18:14;98905.22;;;16.59;100.00
16255;BME280;8235;52.198;9.904;2023-08-01T06:20:41;98908.75;;;16.60;100.00
16255;BME280;8235;52.198;9.904;2023-08-01T06:23:07;98904.56;;;16.57;100.00
16255;BME280;8235;52.198;9.904;2023-08-01T06:25:34;98900.03;;;16.58;100.00
16255;BME280;8235;52.198;9.904;2023-08-01T06:28:01;98905.75;;;16.55;100.00
16255;BME280;8235;52.198;9.904;2023-08-01T06:30:28;98897.69;;;16.55;100.00
16255;BME280;8235;52.198;9.904;2023-08-01T06:32:54;98909.28;;;16.55;100.00
16255;BME280;8235;52.198;9.904;2023-08-01T06:35:21;98901.03;;;16.57;100.00
16255;BME280;8235;52.198;9.904;2023-08-01T06:37:47;98907.06;;;16.59;100.00
16255;BME280;8235;52.198;9.904;2023-08-01T06:40:14;98913.94;;;16.61;100.00
16255;BME280;8235;52.198;9.904;2023-08-01T06:42:40;98907.56;;;16.62;100.00
16255;BME280;8235;52.198;9.904;2023-08-01T06:45:09;98918.50;;;16.61;100.00
16255;BME280;8235;52.198;9.904;2023-08-01T06:47:36;98921.69;;;16.64;100.00
16255;BME280;8235;52.198;9.904;2023-08-01T06:50:02;98921.50;;;16.66;100.00
16255;BME280;8235;52.198;9.904;2023-08-01T06:52:30;98924.84;;;16.68;100.00
16255;BME280;8235;52.198;9.904;2023-08-01T06:54:56;98916.59;;;16.70;100.00
16255;BME280;8235;52.198;9.904;2023-08-01T06:57:23;98931.72;;;16.71;100.00
16255;BME280;8235;52.198;9.904;2023-08-01T06:59:49;98919.94;;;16.72;100.00
16255;BME280;8235;52.198;9.904;2023-08-01T07:02:17;98928.69;;;16.74;100.00
16255;BME280;8235;52.198;9.904;2023-08-01T07:04:43;98928.69;;;16.74;100.00
16255;BME280;8235;52.198;9.904;2023-08-01T07:07:10;98934.91;;;16.74;100.00
16255;BME280;8235;52.198;9.904;2023-08-01T07:09:39;98929.69;;;16.73;100.00
16255;BME280;8235;52.198;9.904;2023-08-01T07:12:06;98936.09;;;16.72;100.00
16255;BME280;8235;52.198;9.904;2023-08-01T07:14:33;98942.28;;;16.72;100.00
16255;BME280;8235;52.198;9.904;2023-08-01T07:16:59;98946.00;;;16.71;100.00
16255;BME280;8235;52.198;9.904;2023-08-01T07:19:27;98945.16;;;16.71;100.00
16255;BME280;8235;52.198;9.904;2023-08-01T07:21:54;98950.34;;;16.72;100.00
16255;BME280;8235;52.198;9.904;2023-08-01T07:24:20;98953.88;;;16.73;100.00
16255;BME280;8235;52.198;9.904;2023-08-01T07:26:46;98946.84;;;16.72;100.00
16255;BME280;8235;52.198;9.904;2023-08-01T07:29:13;98941.63;;;16.70;100.00
16255;BME280;8235;52.198;9.904;2023-08-01T07:31:41;98957.75;;;16.70;100.00
16255;BME280;8235;52.198;9.904;2023-08-01T07:34:07;98959.25;;;16.73;100.00
16255;BME280;8235;52.198;9.904;2023-08-01T07:36:35;98954.56;;;16.75;100.00
16255;BME280;8235;52.198;9.904;2023-08-01T07:39:02;98964.94;;;16.78;100.00
16255;BME280;8235;52.198;9.904;2023-08-01T07:41:29;98958.22;;;16.82;100.00
16255;BME280;8235;52.198;9.904;2023-08-01T07:43:55;98967.13;;;16.82;100.00
16255;BME280;8235;52.198;9.904;2023-08-01T07:46:22;98962.19;;;16.86;100.00
16255;BME280;8235;52.198;9.904;2023-08-01T07:48:48;98976.31;;;16.88;100.00
16255;BME280;8235;52.198;9.904;2023-08-01T07:51:16;98977.63;;;16.92;100.00
16255;BME280;8235;52.198;9.904;2023-08-01T07:53:44;98982.31;;;16.98;100.00
16255;BME280;8235;52.198;9.904;2023-08-01T07:56:10;98972.84;;;17.02;100.00
16255;BME280;8235;52.198;9.904;2023-08-01T07:58:36;98980.56;;;17.05;100.00
16255;BME280;8235;52.198;9.904;2023-08-01T08:01:03;98978.53;;;17.07;100.00
16255;BME280;8235;52.198;9.904;2023-08-01T08:03:30;98982.91;;;17.08;100.00
16255;BME280;8235;52.198;9.904;2023-08-01T08:05:56;98975.66;;;17.09;100.00
16255;BME280;8235;52.198;9.904;2023-08-01T08:08:23;98985.22;;;17.11;100.00
16255;BME280;8235;52.198;9.904;2023-08-01T08:10:51;98978.47;;;17.15;100.00
16255;BME280;8235;52.198;9.904;2023-08-01T08:13:18;98978.75;;;17.20;100.00
16255;BME280;8235;52.198;9.904;2023-08-01T08:15:45;98984.44;;;17.25;100.00
16255;BME280;8235;52.198;9.904;2023-08-01T08:18:12;98980.56;;;17.28;100.00
16255;BME280;8235;52.198;9.904;2023-08-01T08:20:41;98992.09;;;17.37;100.00
16255;BME280;8235;52.198;9.904;2023-08-01T08:23:08;98989.81;;;17.48;100.00
16255;BME280;8235;52.198;9.904;2023-08-01T08:25:35;98980.44;;;17.59;100.00
16255;BME280;8235;52.198;9.904;2023-08-01T08:28:03;98985.72;;;17.75;100.00
16255;BME280;8235;52.198;9.904;2023-08-01T08:30:29;98978.03;;;17.87;100.00
16255;BME280;8235;52.198;9.904;2023-08-01T08:32:57;98982.31;;;17.96;100.00
16255;BME280;8235;52.198;9.904;2023-08-01T08:35:23;98969.59;;;18.04;100.00
16255;BME280;8235;52.198;9.904;2023-08-01T08:37:50;98972.19;;;18.13;100.00
16255;BME280;8235;52.198;9.904;2023-08-01T08:40:16;98971.72;;;18.24;100.00
16255;BME280;8235;52.198;9.904;2023-08-01T08:42:43;98972.28;;;18.34;100.00
16255;BME280;8235;52.198;9.904;2023-08-01T08:45:14;98971.41;;;18.48;100.00
16255;BME280;8235;52.198;9.904;2023-08-01T08:47:44;98971.44;;;18.63;99.60
16255;BME280;8235;52.198;9.904;2023-08-01T08:50:13;98973.50;;;18.82;99.00
16255;BME280;8235;52.198;9.904;2023-08-01T08:52:40;98977.44;;;19.01;96.96
16255;BME280;8235;52.198;9.904;2023-08-01T08:55:07;98985.25;;;19.11;93.60
16255;BME280;8235;52.198;9.904;2023-08-01T08:57:34;98975.53;;;19.16;91.64
16255;BME280;8235;52.198;9.904;2023-08-01T09:00:03;98975.59;;;19.23;90.51
16255;BME280;8235;52.198;9.904;2023-08-01T09:02:32;98968.25;;;19.38;90.64
16255;BME280;8235;52.198;9.904;2023-08-01T09:04:59;98959.28;;;19.52;88.80
16255;BME280;8235;52.198;9.904;2023-08-01T09:07:29;98956.16;;;19.55;85.68
16255;BME280;8235;52.198;9.904;2023-08-01T09:09:56;98952.69;;;19.61;85.06
16255;BME280;8235;52.198;9.904;2023-08-01T09:12:23;98955.25;;;19.69;84.04
16255;BME280;8235;52.198;9.904;2023-08-01T09:14:50;98967.56;;;19.79;82.51
16255;BME280;8235;52.198;9.904;2023-08-01T09:17:17;98974.66;;;19.80;80.62
16255;BME280;8235;52.198;9.904;2023-08-01T09:19:45;98974.00;;;19.77;79.44
16255;BME280;8235;52.198;9.904;2023-08-01T09:22:11;98981.53;;;19.82;79.60
16255;BME280;8235;52.198;9.904;2023-08-01T09:24:38;98975.56;;;19.93;79.74
16255;BME280;8235;52.198;9.904;2023-08-01T09:27:05;98976.47;;;20.00;78.43
16255;BME280;8235;52.198;9.904;2023-08-01T09:29:33;98970.88;;;20.08;77.32
16255;BME280;8235;52.198;9.904;2023-08-01T09:32:00;98966.38;;;20.16;77.35
16255;BME280;8235;52.198;9.904;2023-08-01T09:34:37;98959.59;;;20.33;77.58
16255;BME280;8235;52.198;9.904;2023-08-01T09:37:05;98953.44;;;20.45;77.12
16255;BME280;8235;52.198;9.904;2023-08-01T09:39:33;98959.94;;;20.58;76.77
16255;BME280;8235;52.198;9.904;2023-08-01T09:42:01;98958.13;;;20.71;76.72
16255;BME280;8235;52.198;9.904;2023-08-01T09:44:29;98950.66;;;20.87;75.51
16255;BME280;8235;52.198;9.904;2023-08-01T09:46:56;98949.63;;;20.88;73.30
16255;BME280;8235;52.198;9.904;2023-08-01T09:49:23;98958.81;;;21.00;74.30
16255;BME280;8235;52.198;9.904;2023-08-01T09:51:50;98951.34;;;21.15;74.61
16255;BME280;8235;52.198;9.904;2023-08-01T09:54:18;98953.28;;;21.28;71.86
16255;BME280;8235;52.198;9.904;2023-08-01T09:56:46;98962.22;;;21.35;71.16
16255;BME280;8235;52.198;9.904;2023-08-01T09:59:15;98957.66;;;21.42;70.07
16255;BME280;8235;52.198;9.904;2023-08-01T10:01:47;98963.69;;;21.51;69.41
16255;BME280;8235;52.198;9.904;2023-08-01T10:04:18;98974.75;;;21.62;68.80
16255;BME280;8235;52.198;9.904;2023-08-01T10:06:46;98968.06;;;21.71;67.01
16255;BME280;8235;52.198;9.904;2023-08-01T10:09:15;98969.53;;;21.74;64.80
16255;BME280;8235;52.198;9.904;2023-08-01T10:11:44;98979.94;;;21.77;65.02
16255;BME280;8235;52.198;9.904;2023-08-01T10:14:11;98987.03;;;21.85;64.70
16255;BME280;8235;52.198;9.904;2023-08-01T10:16:37;98985.56;;;21.89;64.84
16255;BME280;8235;52.198;9.904;2023-08-01T10:19:06;98990.97;;;21.95;64.29
16255;BME280;8235;52.198;9.904;2023-08-01T10:21:34;98987.03;;;21.98;64.29
16255;BME280;8235;52.198;9.904;2023-08-01T10:24:03;98984.31;;;22.04;64.74
16255;BME280;8235;52.198;9.904;2023-08-01T10:26:31;98992.44;;;22.17;64.79
16255;BME280;8235;52.198;9.904;2023-08-01T10:29:00;98986.78;;;22.26;63.70
16255;BME280;8235;52.198;9.904;2023-08-01T10:31:27;98982.38;;;22.31;62.86
16255;BME280;8235;52.198;9.904;2023-08-01T10:34:04;98987.13;;;22.42;63.20
16255;BME280;8235;52.198;9.904;2023-08-01T10:36:30;98983.38;;;22.43;60.41
16255;BME280;8235;52.198;9.904;2023-08-01T10:38:59;98995.31;;;22.36;60.17
16255;BME280;8235;52.198;9.904;2023-08-01T10:41:27;98983.84;;;22.34;61.19
16255;BME280;8235;52.198;9.904;2023-08-01T10:44:06;98988.84;;;22.30;60.23
16255;BME280;8235;52.198;9.904;2023-08-01T10:46:45;98992.41;;;22.31;60.76
16255;BME280;8235;52.198;9.904;2023-08-01T10:49:12;98990.53;;;22.31;60.26
16255;BME280;8235;52.198;9.904;2023-08-01T10:51:39;98995.31;;;22.36;60.49
16255;BME280;8235;52.198;9.904;2023-08-01T10:54:05;98990.06;;;22.41;59.82
16255;BME280;8235;52.198;9.904;2023-08-01T10:56:32;98973.41;;;22.37;59.10
16255;BME280;8235;52.198;9.904;2023-08-01T10:58:58;98985.50;;;22.35;58.63
16255;BME280;8235;52.198;9.904;2023-08-01T11:01:26;98987.34;;;22.41;58.76
16255;BME280;8235;52.198;9.904;2023-08-01T11:03:53;98977.75;;;22.45;58.37
16255;BME280;8235;52.198;9.904;2023-08-01T11:06:19;98981.50;;;22.44;57.45
16255;BME280;8235;52.198;9.904;2023-08-01T11:08:46;98982.75;;;22.48;57.83
16255;BME280;8235;52.198;9.904;2023-08-01T11:11:13;98983.13;;;22.58;58.02
16255;BME280;8235;52.198;9.904;2023-08-01T11:13:40;98987.06;;;22.62;56.99
16255;BME280;8235;52.198;9.904;2023-08-01T11:16:07;98985.81;;;22.65;56.46
16255;BME280;8235;52.198;9.904;2023-08-01T11:18:42;98993.09;;;22.71;56.48
16255;BME280;8235;52.198;9.904;2023-08-01T11:21:08;98992.66;;;22.80;56.68
16255;BME280;8235;52.198;9.904;2023-08-01T11:23:35;98986.19;;;22.75;55.36
16255;BME280;8235;52.198;9.904;2023-08-01T11:26:06;98994.56;;;22.73;56.09
16255;BME280;8235;52.198;9.904;2023-08-01T11:28:33;99001.84;;;22.79;56.83
16255;BME280;8235;52.198;9.904;2023-08-01T11:30:59;99009.56;;;22.89;57.62
16255;BME280;8235;52.198;9.904;2023-08-01T11:33:26;99008.09;;;22.87;55.19
16255;BME280;8235;52.198;9.904;2023-08-01T11:35:55;99009.16;;;22.85;56.05
16255;BME280;8235;52.198;9.904;2023-08-01T11:38:23;99011.16;;;22.97;56.84
16255;BME280;8235;52.198;9.904;2023-08-01T11:40:51;99005.50;;;23.05;56.56
16255;BME280;8235;52.198;9.904;2023-08-01T11:43:17;99012.59;;;23.06;55.66
16255;BME280;8235;52.198;9.904;2023-08-01T11:45:51;99025.75;;;23.02;54.75
16255;BME280;8235;52.198;9.904;2023-08-01T11:48:17;99017.84;;;23.01;55.03
16255;BME280;8235;52.198;9.904;2023-08-01T11:50:44;99033.50;;;22.99;55.15
16255;BME280;8235;52.198;9.904;2023-08-01T11:53:19;99032.09;;;22.90;55.17
16255;BME280;8235;52.198;9.904;2023-08-01T11:55:45;99023.13;;;22.82;55.31
16255;BME280;8235;52.198;9.904;2023-08-01T11:58:12;99030.44;;;22.75;55.52
16255;BME280;8235;52.198;9.904;2023-08-01T12:00:40;99031.94;;;22.71;55.54
16255;BME280;8235;52.198;9.904;2023-08-01T12:03:08;99043.22;;;22.68;55.47
16255;BME280;8235;52.198;9.904;2023-08-01T12:05:38;99042.19;;;22.63;54.95
16255;BME280;8235;52.198;9.904;2023-08-01T12:08:10;99049.31;;;22.57;54.93
16255;BME280;8235;52.198;9.904;2023-08-01T12:10:39;99061.22;;;22.49;55.32
16255;BME280;8235;52.198;9.904;2023-08-01T12:13:06;99049.97;;;22.33;55.43
16255;BME280;8235;52.198;9.904;2023-08-01T12:15:32;99058.75;;;22.22;56.09
16255;BME280;8235;52.198;9.904;2023-08-01T12:17:59;99059.59;;;22.09;57.04
16255;BME280;8235;52.198;9.904;2023-08-01T12:20:25;99066.47;;;21.98;57.73
16255;BME280;8235;52.198;9.904;2023-08-01T12:22:52;99053.34;;;21.82;58.73
16255;BME280;8235;52.198;9.904;2023-08-01T12:25:18;99053.09;;;21.70;60.04
16255;BME280;8235;52.198;9.904;2023-08-01T12:27:46;99050.19;;;21.65;60.84
16255;BME280;8235;52.198;9.904;2023-08-01T12:30:13;99048.72;;;21.63;61.46
16255;BME280;8235;52.198;9.904;2023-08-01T12:32:39;99052.28;;;21.63;62.36
16255;BME280;8235;52.198;9.904;2023-08-01T12:35:06;99041.00;;;21.73;62.69
16255;BME280;8235;52.198;9.904;2023-08-01T12:37:33;99039.34;;;21.78;62.46
16255;BME280;8235;52.198;9.904;2023-08-01T12:39:59;99066.88;;;21.82;61.78
16255;BME280;8235;52.198;9.904;2023-08-01T12:42:26;99063.75;;;21.92;62.74
16255;BME280;8235;52.198;9.904;2023-08-01T12:44:54;99072.56;;;22.00;61.97
16255;BME280;8235;52.198;9.904;2023-08-01T12:47:20;99071.50;;;22.01;60.88
16255;BME280;8235;52.198;9.904;2023-08-01T12:49:47;99077.72;;;21.95;59.96
16255;BME280;8235;52.198;9.904;2023-08-01T12:52:22;99092.94;;;21.83;59.54
16255;BME280;8235;52.198;9.904;2023-08-01T12:54:48;99096.88;;;21.74;60.42
16255;BME280;8235;52.198;9.904;2023-08-01T12:57:15;99109.16;;;21.70;60.64
16255;BME280;8235;52.198;9.904;2023-08-01T12:59:41;99110.44;;;21.67;61.16
16255;BME280;8235;52.198;9.904;2023-08-01T13:02:09;99113.94;;;21.68;62.22